Time;durP1;ratioP1;P1;durP2;ratioP2;P2;SDS_P1;SDS_P2;PMS_P1;PMS_P2;Temp;Humidity;BMP_temperature;BMP_pressure;BME280_temperature;BME280_humidity;BME280_pressure;Samples;Min_cycle;Max_cycle;Signal;HPM_P1;HPM_P2
2023/07/06 00:00:15;;;;;;;;;;;;;;;-144.99;96.20;52358.41;5021097;28;20122;-68
2023/07/06 00:02:42;;;;;;;;;;;;;;;-144.99;95.61;52409.38;5020677;28;19943;-67
2023/07/06 00:05:10;;;;;;;;;;;;;;;-144.99;95.96;52391.03;5012181;28;19960;-65
2023/07/06 00:07:37;;;;;;;;;;;;;;;-144.99;95.62;52358.41;5001952;28;20228;-65
2023/07/06 00:10:04;;;;;;;;;;;;;;;-144.99;96.01;52297.25;5011283;28;19969;-64
2023/07/06 00:12:31;;;;;;;;;;;;;;;-144.99;95.48;52386.94;5015421;28;20422;-65
2023/07/06 00:14:58;;;;;;;;;;;;;;;-144.99;95.35;52338.03;5006680;28;19947;-64
2023/07/06 00:17:24;;;;;;;;;;;;;;;-144.99;95.06;52374.72;5006557;28;20432;-65
2023/07/06 00:19:51;;;;;;;;;;;;;;;-144.99;94.96;52374.72;5019244;28;19967;-65
2023/07/06 00:22:19;;;;;;;;;;;;;;;-144.99;94.79;52374.72;5009325;28;19944;-65
2023/07/06 00:24:48;;;;;;;;;;;;;;;-144.99;95.23;52374.72;5008872;28;20034;-65
2023/07/06 00:27:16;;;;;;;;;;;;;;;-144.99;94.83;52344.16;5007663;28;21314;-65
2023/07/06 00:29:56;;;;;;;;;;;;;;;-144.99;94.58;52384.91;5013631;28;19943;-65
2023/07/06 00:32:28;;;;;;;;;;;;;;;-144.99;95.16;52366.56;5007170;28;19974;-65
2023/07/06 00:34:55;;;;;;;;;;;;;;;-144.99;97.20;52342.09;5008533;28;19947;-66
2023/07/06 00:37:23;;;;;;;;;;;;;;;-144.99;97.78;52399.19;5007566;28;19955;-67
2023/07/06 00:39:50;;;;;;;;;;;;;;;-144.99;98.76;52378.78;5008642;28;19963;-67
2023/07/06 00:42:17;;;;;;;;;;;;;;;-144.99;99.36;52374.72;5009109;28;19996;-67
2023/07/06 00:44:49;;;;;;;;;;;;;;;-144.99;98.66;52386.94;5015546;28;19948;-67
2023/07/06 00:47:16;;;;;;;;;;;;;;;-144.99;97.58;52386.94;5018213;28;19940;-68
2023/07/06 00:49:43;;;;;;;;;;;;;;;-144.99;98.57;52386.94;5010471;28;20044;-68
2023/07/06 00:52:10;;;;;;;;;;;;;;;-144.99;99.27;52395.09;5015775;28;20416;-67
2023/07/06 00:54:42;;;;;;;;;;;;;;;-144.99;100.00;52380.84;5014192;28;19947;-68
2023/07/06 00:57:11;;;;;;;;;;;;;;;-144.99;100.00;52388.97;5027511;28;19941;-67
2023/07/06 00:59:40;;;;;;;;;;;;;;;-144.99;100.00;52386.94;5039289;28;19961;-67
2023/07/06 01:02:08;;;;;;;;;;;;;;;-144.99;100.00;52374.72;5029221;28;19948;-66
2023/07/06 01:04:35;;;;;;;;;;;;;;;-144.99;98.52;52362.50;5035753;28;20417;-68
2023/07/06 01:07:02;;;;;;;;;;;;;;;-144.99;98.52;52380.84;5028989;28;19945;-63
2023/07/06 01:09:30;;;;;;;;;;;;;;;-144.99;99.12;52364.53;5032941;28;19947;-70
2023/07/06 01:11:58;;;;;;;;;;;;;;;-144.99;98.64;52370.63;5024910;28;19948;-63
2023/07/06 01:14:26;;;;;;;;;;;;;;;-144.99;99.36;52368.59;5033073;28;19942;-63
2023/07/06 01:16:56;;;;;;;;;;;;;;;-144.99;99.79;52362.50;5022948;28;19952;-67
2023/07/06 01:19:38;;;;;;;;;;;;;;;-144.99;99.69;52395.09;5027873;28;19971;-66
2023/07/06 01:22:14;;;;;;;;;;;;;;;-144.99;99.67;52362.50;5032712;28;19942;-67
2023/07/06 01:24:50;;;;;;;;;;;;;;;-144.99;100.00;52376.75;5032006;28;19944;-67
2023/07/06 01:27:37;;;;;;;;;;;;;;;-144.99;100.00;52370.63;5023144;28;19970;-67
2023/07/06 01:30:15;;;;;;;;;;;;;;;-144.99;100.00;52391.03;5024589;28;19958;-67
2023/07/06 01:32:48;;;;;;;;;;;;;;;-144.99;99.90;52338.03;5015414;28;20024;-68
2023/07/06 01:35:18;;;;;;;;;;;;;;;-144.99;100.00;52380.84;5012459;28;19983;-68
2023/07/06 01:37:45;;;;;;;;;;;;;;;-144.99;100.00;52362.50;5011892;28;20187;-68
2023/07/06 01:40:13;;;;;;;;;;;;;;;-144.99;100.00;52374.72;5012817;28;19968;-68
2023/07/06 01:42:40;;;;;;;;;;;;;;;-144.99;100.00;52368.59;5024093;28;20445;-68
2023/07/06 01:45:08;;;;;;;;;;;;;;;-144.99;100.00;52370.63;5018355;28;19943;-68
2023/07/06 01:47:36;;;;;;;;;;;;;;;-144.99;100.00;52407.31;5015925;28;19943;-67
2023/07/06 01:50:06;;;;;;;;;;;;;;;-144.99;100.00;52378.78;5009098;28;19960;-67
2023/07/06 01:52:50;;;;;;;;;;;;;;;-144.99;100.00;52350.25;5011399;28;19942;-68
2023/07/06 01:55:21;;;;;;;;;;;;;;;-144.99;100.00;52358.41;5010865;28;19947;-67
2023/07/06 01:57:51;;;;;;;;;;;;;;;-144.99;100.00;52370.63;4662837;28;9999977;-68
2023/07/06 02:00:19;;;;;;;;;;;;;;;-144.99;100.00;52399.19;5012460;28;20389;-69
2023/07/06 02:02:48;;;;;;;;;;;;;;;-144.99;100.00;52370.63;5015693;28;19944;-69
2023/07/06 02:05:16;;;;;;;;;;;;;;;-144.99;100.00;52382.88;5017401;28;19947;-68
2023/07/06 02:07:43;;;;;;;;;;;;;;;-144.99;100.00;52384.91;5015542;28;19941;-70
2023/07/06 02:10:14;;;;;;;;;;;;;;;-144.99;100.00;52370.63;5013869;28;19963;-70
2023/07/06 02:12:41;;;;;;;;;;;;;;;-144.99;100.00;52370.63;5016459;28;19952;-70
2023/07/06 02:15:08;;;;;;;;;;;;;;;-144.99;100.00;52376.75;5016912;28;19951;-70
2023/07/06 02:17:35;;;;;;;;;;;;;;;-144.99;100.00;52370.63;5022052;28;19987;-70
2023/07/06 02:20:02;;;;;;;;;;;;;;;-144.99;100.00;52366.56;5019971;28;19962;-70
2023/07/06 02:22:32;;;;;;;;;;;;;;;-144.99;100.00;52391.03;5014909;28;20427;-70
2023/07/06 02:24:59;;;;;;;;;;;;;;;-144.99;100.00;52407.31;5023740;28;19948;-68
2023/07/06 02:27:25;;;;;;;;;;;;;;;-144.99;100.00;52419.56;5014957;28;19976;-66
2023/07/06 02:29:52;;;;;;;;;;;;;;;-144.99;100.00;52403.25;5016998;28;20298;-66
2023/07/06 02:32:19;;;;;;;;;;;;;;;-144.99;100.00;52391.03;5016460;28;20562;-65
2023/07/06 02:34:45;;;;;;;;;;;;;;;-144.99;100.00;52393.06;5022245;28;20037;-65
2023/07/06 02:37:12;;;;;;;;;;;;;;;-144.99;100.00;52348.22;5016433;28;19961;-64
2023/07/06 02:39:41;;;;;;;;;;;;;;;-144.99;100.00;52386.94;5016537;28;20085;-65
2023/07/06 02:42:08;;;;;;;;;;;;;;;-144.99;100.00;52378.78;5017465;28;19945;-64
2023/07/06 02:44:34;;;;;;;;;;;;;;;-144.99;100.00;52391.03;5013285;28;20036;-65
2023/07/06 02:47:01;;;;;;;;;;;;;;;-144.99;100.00;52370.63;5013944;28;19942;-65
2023/07/06 02:49:28;;;;;;;;;;;;;;;-144.99;100.00;52366.56;5016933;28;20402;-65
2023/07/06 02:51:55;;;;;;;;;;;;;;;-144.99;100.00;52384.91;5013705;28;19944;-65
2023/07/06 02:54:22;;;;;;;;;;;;;;;-144.99;100.00;52364.53;5013615;28;19946;-64
2023/07/06 02:56:50;;;;;;;;;;;;;;;-144.99;100.00;52423.63;5012595;28;19953;-64
2023/07/06 02:59:16;;;;;;;;;;;;;;;-144.99;100.00;52391.03;5012487;28;20016;-65
2023/07/06 03:01:43;;;;;;;;;;;;;;;-144.99;100.00;52370.63;5012728;28;19955;-64
2023/07/06 03:04:10;;;;;;;;;;;;;;;-144.99;100.00;52407.31;5012099;28;19941;-64
2023/07/06 03:06:38;;;;;;;;;;;;;;;-144.99;100.00;52380.84;5018966;28;19944;-64
2023/07/06 03:09:05;;;;;;;;;;;;;;;-144.99;100.00;52431.78;5011716;28;20007;-64
2023/07/06 03:11:32;;;;;;;;;;;;;;;-144.99;100.00;52407.31;5011864;28;20111;-63
2023/07/06 03:14:02;;;;;;;;;;;;;;;-144.99;100.00;52382.88;5012269;28;19949;-66
2023/07/06 03:16:29;;;;;;;;;;;;;;;-144.99;100.00;52382.88;5012467;28;19941;-66
2023/07/06 03:18:55;;;;;;;;;;;;;;;-144.99;100.00;52386.94;5010990;28;19969;-64
2023/07/06 03:21:22;;;;;;;;;;;;;;;-144.99;100.00;52360.44;5014564;28;19965;-67
2023/07/06 03:23:50;;;;;;;;;;;;;;;-144.99;100.00;52403.25;5020319;28;19950;-68
2023/07/06 03:26:16;;;;;;;;;;;;;;;-144.99;100.00;52411.41;5014298;28;19939;-66
2023/07/06 03:28:43;;;;;;;;;;;;;;;-144.99;100.00;52403.25;5012536;28;19944;-71
2023/07/06 03:31:14;;;;;;;;;;;;;;;-144.99;100.00;52382.88;5013330;28;19963;-70
2023/07/06 03:33:41;;;;;;;;;;;;;;;-144.99;100.00;52386.94;5015782;28;19948;-66
2023/07/06 03:36:08;;;;;;;;;;;;;;;-144.99;100.00;52368.59;5013280;28;19945;-67
2023/07/06 03:38:35;;;;;;;;;;;;;;;-144.99;100.00;52374.72;5024342;28;20375;-68
2023/07/06 03:41:03;;;;;;;;;;;;;;;-144.99;100.00;52391.03;5007080;28;20430;-69
2023/07/06 03:43:31;;;;;;;;;;;;;;;-144.99;100.00;52378.78;5023576;28;20325;-67
2023/07/06 03:45:57;;;;;;;;;;;;;;;-144.99;100.00;52391.03;5016084;28;19942;-67
2023/07/06 03:48:26;;;;;;;;;;;;;;;-144.99;100.00;52386.94;5013781;28;20320;-67
2023/07/06 03:50:53;;;;;;;;;;;;;;;-144.99;100.00;52374.72;5014937;28;19967;-66
2023/07/06 03:53:21;;;;;;;;;;;;;;;-144.99;100.00;52352.28;5020274;28;20047;-67
2023/07/06 03:55:48;;;;;;;;;;;;;;;-144.99;100.00;52358.41;5014087;28;20000;-67
2023/07/06 03:58:15;;;;;;;;;;;;;;;-144.99;100.00;52395.09;5016336;28;19940;-67
2023/07/06 04:00:41;;;;;;;;;;;;;;;-144.99;100.00;52415.47;5020996;28;20373;-67
2023/07/06 04:03:08;;;;;;;;;;;;;;;-144.99;100.00;52352.28;5011231;28;19966;-68
2023/07/06 04:05:37;;;;;;;;;;;;;;;-144.99;100.00;52382.88;5011588;28;20377;-68
2023/07/06 04:08:06;;;;;;;;;;;;;;;-144.99;100.00;52356.38;5014546;28;19945;-65
2023/07/06 04:10:33;;;;;;;;;;;;;;;-144.99;100.00;52403.25;5012525;28;20000;-69
2023/07/06 04:13:00;;;;;;;;;;;;;;;-144.99;100.00;52419.56;5012661;28;20027;-67
2023/07/06 04:15:27;;;;;;;;;;;;;;;-144.99;100.00;52358.41;5012995;28;19944;-69
2023/07/06 04:17:53;;;;;;;;;;;;;;;-144.99;100.00;52364.53;5013638;28;19946;-64
2023/07/06 04:20:22;;;;;;;;;;;;;;;-144.99;100.00;52358.41;5016670;28;19968;-67
2023/07/06 04:22:51;;;;;;;;;;;;;;;-144.99;100.00;52356.38;5024445;28;19948;-68
2023/07/06 04:25:19;;;;;;;;;;;;;;;-144.99;100.00;52376.75;5019386;28;19942;-70
2023/07/06 04:27:46;;;;;;;;;;;;;;;-144.99;100.00;52391.03;5015982;28;19976;-68
2023/07/06 04:30:14;;;;;;;;;;;;;;;-144.99;100.00;52358.41;5016258;28;19964;-68
2023/07/06 04:32:41;;;;;;;;;;;;;;;-144.99;100.00;52360.44;5017530;28;19946;-69
2023/07/06 04:35:11;;;;;;;;;;;;;;;-144.99;100.00;52366.56;5015535;28;19982;-69
2023/07/06 04:37:38;;;;;;;;;;;;;;;-144.99;100.00;52407.31;5020144;28;19950;-67
2023/07/06 04:40:11;;;;;;;;;;;;;;;-144.99;100.00;52376.75;5024826;28;20549;-70
2023/07/06 04:42:38;;;;;;;;;;;;;;;-144.99;100.00;52374.72;5016220;28;19970;-67
2023/07/06 04:45:04;;;;;;;;;;;;;;;-144.99;100.00;52366.56;5016648;28;20415;-69
2023/07/06 04:47:33;;;;;;;;;;;;;;;-144.99;100.00;52391.03;5014439;28;20184;-69
2023/07/06 04:49:59;;;;;;;;;;;;;;;-144.99;100.00;52331.91;5014521;28;19968;-69
2023/07/06 04:52:26;;;;;;;;;;;;;;;-144.99;100.00;52399.19;5017675;28;19961;-70
2023/07/06 04:54:53;;;;;;;;;;;;;;;-144.99;100.00;52338.03;5019353;28;19942;-69
2023/07/06 04:57:21;;;;;;;;;;;;;;;-144.99;100.00;52368.59;5011517;28;19949;-67
2023/07/06 04:59:47;;;;;;;;;;;;;;;-144.99;100.00;52370.63;5017465;28;20441;-67
2023/07/06 05:02:14;;;;;;;;;;;;;;;-144.99;100.00;52350.25;5028358;28;19944;-68
2023/07/06 05:04:41;;;;;;;;;;;;;;;-144.99;100.00;52305.41;5023827;28;20041;-67
2023/07/06 05:07:08;;;;;;;;;;;;;;;-144.99;100.00;52362.50;5023761;28;19940;-69
2023/07/06 05:09:36;;;;;;;;;;;;;;;-144.99;100.00;52342.09;5027644;28;20327;-68
2023/07/06 05:12:03;;;;;;;;;;;;;;;-144.99;100.00;52350.25;5022817;28;19944;-67
2023/07/06 05:14:33;;;;;;;;;;;;;;;-144.99;100.00;52386.94;5023030;28;19940;-68
2023/07/06 05:17:00;;;;;;;;;;;;;;;-144.99;100.00;52338.03;5022460;28;19941;-68
2023/07/06 05:19:27;;;;;;;;;;;;;;;-144.99;100.00;52317.66;5012998;28;19989;-68
2023/07/06 05:21:55;;;;;;;;;;;;;;;-144.99;100.00;52366.56;5015555;28;19945;-72
2023/07/06 05:24:21;;;;;;;;;;;;;;;-144.99;100.00;52325.81;5021248;28;19954;-68
2023/07/06 05:26:48;;;;;;;;;;;;;;;-144.99;100.00;52305.41;5022413;28;20001;-67
2023/07/06 05:29:14;;;;;;;;;;;;;;;-144.99;100.00;52313.56;5013814;28;19940;-70
2023/07/06 05:31:43;;;;;;;;;;;;;;;-144.99;100.00;52333.94;5016365;28;19980;-68
2023/07/06 05:34:09;;;;;;;;;;;;;;;-144.99;100.00;52342.09;5021553;28;20040;-69
2023/07/06 05:36:36;;;;;;;;;;;;;;;-144.99;100.00;52340.06;5014673;28;19969;-68
2023/07/06 05:39:03;;;;;;;;;;;;;;;-144.99;100.00;52358.41;5016678;28;20050;-70
2023/07/06 05:41:30;;;;;;;;;;;;;;;-144.99;99.48;52329.88;5014374;28;20056;-69
2023/07/06 05:43:56;;;;;;;;;;;;;;;-144.99;98.96;52333.94;5016410;28;19952;-70
2023/07/06 05:46:24;;;;;;;;;;;;;;;-144.99;98.31;52315.59;5013249;28;19943;-69
2023/07/06 05:48:52;;;;;;;;;;;;;;;-144.99;96.81;52342.09;5015017;28;20036;-70
2023/07/06 05:51:19;;;;;;;;;;;;;;;-144.99;96.21;52325.81;5017521;28;19963;-73
2023/07/06 05:53:48;;;;;;;;;;;;;;;-144.99;95.70;52354.34;5015350;28;20193;-71
2023/07/06 05:56:15;;;;;;;;;;;;;;;-144.99;96.48;52297.25;5017656;28;19979;-71
2023/07/06 05:58:44;;;;;;;;;;;;;;;-144.99;95.32;52305.41;5014492;28;20356;-71
2023/07/06 06:01:11;;;;;;;;;;;;;;;-144.99;94.15;52313.56;5015165;28;20049;-70
2023/07/06 06:03:37;;;;;;;;;;;;;;;-144.99;93.38;52307.47;5015736;28;20039;-73
2023/07/06 06:06:05;;;;;;;;;;;;;;;-144.99;92.91;52301.34;5014172;28;20309;-71
2023/07/06 06:08:32;;;;;;;;;;;;;;;-144.99;92.79;52321.72;5017296;28;19947;-69
2023/07/06 06:11:00;;;;;;;;;;;;;;;-144.99;92.76;52325.81;5017805;28;19960;-68
2023/07/06 06:13:27;;;;;;;;;;;;;;;-144.99;93.14;52329.88;5017218;28;20456;-70
2023/07/06 06:15:53;;;;;;;;;;;;;;;-144.99;93.63;52354.34;5014054;28;19946;-70
2023/07/06 06:18:20;;;;;;;;;;;;;;;-144.99;92.95;52338.03;5020661;28;20337;-73
2023/07/06 06:20:47;;;;;;;;;;;;;;;-144.99;92.87;52305.41;5014354;28;20511;-70
2023/07/06 06:23:16;;;;;;;;;;;;;;;-144.99;92.43;52309.50;5015673;28;19951;-70
2023/07/06 06:25:43;;;;;;;;;;;;;;;-144.99;92.19;52333.94;5018888;28;20260;-72
2023/07/06 06:28:10;;;;;;;;;;;;;;;-144.99;92.16;52325.81;5017199;28;20371;-69
2023/07/06 06:30:38;;;;;;;;;;;;;;;-144.99;91.43;52311.53;5013661;28;19955;-70
2023/07/06 06:33:05;;;;;;;;;;;;;;;-144.99;91.21;52295.22;5015293;28;20407;-69
2023/07/06 06:35:33;;;;;;;;;;;;;;;-144.99;90.83;52309.50;5014708;28;19940;-67
2023/07/06 06:38:03;;;;;;;;;;;;;;;-144.99;90.20;52313.56;5022769;28;19945;-69
2023/07/06 06:40:31;;;;;;;;;;;;;;;-144.99;89.73;52301.34;5019992;28;19968;-67
2023/07/06 06:43:00;;;;;;;;;;;;;;;-144.99;89.86;52309.50;5018477;28;19943;-68
2023/07/06 06:45:27;;;;;;;;;;;;;;;-144.99;89.21;52309.50;5018356;28;19930;-69
2023/07/06 06:47:53;;;;;;;;;;;;;;;-144.99;88.07;52305.41;5015568;28;20012;-70
2023/07/06 06:50:20;;;;;;;;;;;;;;;-144.99;87.57;52285.03;5015851;28;19972;-71
2023/07/06 06:52:47;;;;;;;;;;;;;;;-144.99;86.97;52256.50;5017190;28;19995;-70
2023/07/06 06:55:14;;;;;;;;;;;;;;;-144.99;87.02;52276.88;5016634;28;20669;-71
2023/07/06 06:57:43;;;;;;;;;;;;;;;-144.99;86.34;52285.03;5013804;28;19952;-69
2023/07/06 07:00:13;;;;;;;;;;;;;;;-144.99;84.95;52285.03;5023009;28;20358;-71
2023/07/06 07:02:40;;;;;;;;;;;;;;;-144.99;84.10;52276.88;5026269;28;20056;-73
2023/07/06 07:05:07;;;;;;;;;;;;;;;-144.99;83.68;52289.13;5021550;28;19962;-69
2023/07/06 07:07:37;;;;;;;;;;;;;;;-144.99;83.10;52285.03;5024156;28;20041;-71
2023/07/06 07:10:05;;;;;;;;;;;;;;;-144.99;83.06;52309.50;5021398;28;19929;-68
2023/07/06 07:12:31;;;;;;;;;;;;;;;-144.99;81.79;52305.41;5016356;28;19944;-67
2023/07/06 07:14:59;;;;;;;;;;;;;;;-144.99;82.04;52252.44;5030397;28;19939;-68
2023/07/06 07:17:27;;;;;;;;;;;;;;;-144.99;81.16;52272.81;5019251;28;20498;-67
2023/07/06 07:19:53;;;;;;;;;;;;;;;-144.99;80.70;52260.56;5019136;28;19961;-68
2023/07/06 07:22:21;;;;;;;;;;;;;;;-144.99;80.02;52268.72;5028506;28;19966;-68
2023/07/06 07:24:48;;;;;;;;;;;;;;;-144.99;79.49;52240.19;5019899;28;19943;-68
2023/07/06 07:27:14;;;;;;;;;;;;;;;-144.99;80.13;52291.16;5026911;28;19943;-67
2023/07/06 07:29:46;;;;;;;;;;;;;;;-144.99;79.66;52293.19;5012497;28;19936;-68
2023/07/06 07:32:14;;;;;;;;;;;;;;;-144.99;79.82;52305.41;5019976;28;20328;-68
2023/07/06 07:34:43;;;;;;;;;;;;;;;-144.99;78.03;52285.03;5021401;28;19952;-68
2023/07/06 07:37:10;;;;;;;;;;;;;;;-144.99;77.24;52289.13;5020225;28;19937;-68
2023/07/06 07:39:37;;;;;;;;;;;;;;;-144.99;77.31;52223.88;5027263;28;19940;-67
2023/07/06 07:42:04;;;;;;;;;;;;;;;-144.99;77.03;52232.03;5023894;28;19977;-67
2023/07/06 07:44:31;;;;;;;;;;;;;;;-144.99;75.77;52268.72;5023992;28;19947;-68
2023/07/06 07:46:58;;;;;;;;;;;;;;;-144.99;75.11;52240.19;5019713;28;20011;-69
2023/07/06 07:49:26;;;;;;;;;;;;;;;-144.99;74.62;52299.31;5017397;28;20026;-69
2023/07/06 07:51:53;;;;;;;;;;;;;;;-144.99;74.95;52264.66;5017825;28;19950;-69
2023/07/06 07:54:20;;;;;;;;;;;;;;;-144.99;73.63;52272.81;5018590;28;20004;-70
2023/07/06 07:56:48;;;;;;;;;;;;;;;-144.99;73.69;52240.19;5021493;28;19929;-69
2023/07/06 07:59:15;;;;;;;;;;;;;;;-144.99;73.57;52280.97;5022842;28;19944;-70
2023/07/06 08:01:42;;;;;;;;;;;;;;;-144.99;73.34;52248.34;5024148;28;20400;-70
2023/07/06 08:04:09;;;;;;;;;;;;;;;-144.99;73.37;52256.50;5025603;28;19941;-70
2023/07/06 08:06:38;;;;;;;;;;;;;;;-144.99;73.68;52252.44;5017824;28;19941;-69
2023/07/06 08:09:07;;;;;;;;;;;;;;;-144.99;72.93;52289.13;5016880;28;20407;-69
2023/07/06 08:11:36;;;;;;;;;;;;;;;-144.99;73.42;52270.78;5015591;28;20453;-67
2023/07/06 08:14:04;;;;;;;;;;;;;;;-144.99;73.47;52280.97;5015114;28;20040;-69
2023/07/06 08:16:32;;;;;;;;;;;;;;;-144.99;73.43;52287.06;5025655;28;20326;-69
2023/07/06 08:18:59;;;;;;;;;;;;;;;-144.99;72.64;52264.66;5022118;28;20350;-69
2023/07/06 08:21:26;;;;;;;;;;;;;;;-144.99;71.97;52174.97;5016909;28;19963;-71
2023/07/06 08:23:54;;;;;;;;;;;;;;;-144.99;71.19;52234.09;5016340;28;19940;-74
2023/07/06 08:26:21;;;;;;;;;;;;;;;-144.99;70.87;52289.13;5013701;28;19966;-70
2023/07/06 08:28:48;;;;;;;;;;;;;;;-144.99;70.83;52256.50;5017459;28;19984;-72
2023/07/06 08:31:16;;;;;;;;;;;;;;;-144.99;70.52;52232.03;5017539;28;19929;-73
2023/07/06 08:33:42;;;;;;;;;;;;;;;-144.99;71.25;52262.63;5018278;28;19978;-71
2023/07/06 08:36:09;;;;;;;;;;;;;;;-144.99;71.33;52248.34;5017800;28;19956;-72
2023/07/06 08:38:37;;;;;;;;;;;;;;;-144.99;70.68;52244.28;5015140;28;19999;-71
2023/07/06 08:41:12;;;;;;;;;;;;;;;-144.99;70.75;52213.69;5016229;28;19963;-70
2023/07/06 08:43:41;;;;;;;;;;;;;;;-144.99;70.36;52223.88;5017233;28;19944;-70
2023/07/06 08:46:11;;;;;;;;;;;;;;;-144.99;70.39;52240.19;5016435;28;20026;-70
2023/07/06 08:48:38;;;;;;;;;;;;;;;-144.99;69.66;52215.75;5017870;28;19975;-69
2023/07/06 08:51:17;;;;;;;;;;;;;;;-144.99;69.49;52256.50;5015877;28;19953;-72
2023/07/06 08:53:47;;;;;;;;;;;;;;;-144.99;68.65;52223.88;5016736;28;20317;-71
2023/07/06 08:56:18;;;;;;;;;;;;;;;-144.99;68.30;52221.84;5017226;28;19947;-69
2023/07/06 08:58:45;;;;;;;;;;;;;;;-144.99;68.38;52191.28;5023288;28;20595;-68
2023/07/06 09:01:13;;;;;;;;;;;;;;;-144.99;68.66;52215.75;5020504;28;19962;-72
2023/07/06 09:03:43;;;;;;;;;;;;;;;-144.99;67.97;52232.03;5009442;28;20357;-73
2023/07/06 09:06:12;;;;;;;;;;;;;;;-144.99;66.73;52183.13;5023089;28;20385;-73
2023/07/06 09:08:41;;;;;;;;;;;;;;;-144.99;67.36;52203.50;5022168;28;20280;-70
2023/07/06 09:11:08;;;;;;;;;;;;;;;-144.99;67.05;52236.13;5022479;28;19941;-70
2023/07/06 09:13:45;;;;;;;;;;;;;;;-144.99;66.88;52211.66;5021661;28;19963;-72
2023/07/06 09:16:12;;;;;;;;;;;;;;;-144.99;66.80;52244.28;5017574;28;20496;-73
2023/07/06 09:18:39;;;;;;;;;;;;;;;-144.99;66.20;52221.84;5025878;28;20030;-74
2023/07/06 09:21:06;;;;;;;;;;;;;;;-144.99;66.36;52232.03;5022978;28;19929;-71
2023/07/06 09:23:33;;;;;;;;;;;;;;;-144.99;66.43;52215.75;5027081;28;19943;-71
2023/07/06 09:26:00;;;;;;;;;;;;;;;-144.99;66.50;52232.03;5019556;28;19940;-67
2023/07/06 09:28:29;;;;;;;;;;;;;;;-144.99;66.53;52227.97;5019036;28;19941;-67
2023/07/06 09:31:07;;;;;;;;;;;;;;;-144.99;66.04;52248.34;5013801;28;20046;-67
2023/07/06 09:33:34;;;;;;;;;;;;;;;-144.99;65.65;52240.19;5028212;28;19944;-69
2023/07/06 09:36:01;;;;;;;;;;;;;;;-144.99;66.36;52232.03;5023895;28;19940;-67
2023/07/06 09:38:30;;;;;;;;;;;;;;;-144.99;66.64;52203.50;5022813;28;20414;-66
2023/07/06 09:40:57;;;;;;;;;;;;;;;-144.99;66.93;52238.16;5014446;28;19975;-71
2023/07/06 09:43:24;;;;;;;;;;;;;;;-144.99;67.16;52315.59;5015597;28;19946;-73
2023/07/06 09:45:52;;;;;;;;;;;;;;;-144.99;67.48;52252.44;5015453;28;21589;-70
2023/07/06 09:48:30;;;;;;;;;;;;;;;-144.99;67.36;52287.06;5019160;28;19975;-71
2023/07/06 09:51:00;;;;;;;;;;;;;;;-144.99;67.77;52246.31;5015721;28;20052;-73
2023/07/06 09:53:30;;;;;;;;;;;;;;;-144.99;67.58;52256.50;5017406;28;19945;-75
2023/07/06 09:55:56;;;;;;;;;;;;;;;-144.99;67.69;52256.50;5017765;28;20044;-74
2023/07/06 09:58:25;;;;;;;;;;;;;;;-144.99;67.53;52227.97;5015900;28;20037;-71
2023/07/06 10:00:53;;;;;;;;;;;;;;;-144.99;67.96;52248.34;5015786;28;20038;-74
2023/07/06 10:03:28;;;;;;;;;;;;;;;-144.99;68.31;52280.97;5017868;28;20317;-72
2023/07/06 10:06:00;;;;;;;;;;;;;;;-144.99;68.32;52264.66;5017312;28;19942;-71
2023/07/06 10:08:31;;;;;;;;;;;;;;;-144.99;68.00;52285.03;5014468;28;19945;-54
2023/07/06 10:11:04;;;;;;;;;;;;;;;-144.99;67.83;52268.72;5014486;28;20403;-57
2023/07/06 10:13:35;;;;;;;;;;;;;;;-144.99;68.05;52244.28;5015038;28;19940;-57
2023/07/06 10:16:07;;;;;;;;;;;;;;;-144.99;67.84;52317.66;5014508;28;19942;-57
2023/07/06 10:18:40;;;;;;;;;;;;;;;-144.99;67.71;52317.66;5016245;28;19967;-57
2023/07/06 10:21:12;;;;;;;;;;;;;;;-144.99;67.66;52252.44;5016426;28;20009;-55
2023/07/06 10:23:43;;;;;;;;;;;;;;;-144.99;67.11;52195.34;5016688;28;19950;-72
2023/07/06 10:26:17;;;;;;;;;;;;;;;-144.99;66.94;52248.34;5015823;28;20354;-71
2023/07/06 10:28:47;;;;;;;;;;;;;;;-144.99;67.01;52256.50;5016760;28;19973;-72
2023/07/06 10:31:16;;;;;;;;;;;;;;;-144.99;67.06;52244.28;5016003;28;19961;-71
2023/07/06 10:33:47;;;;;;;;;;;;;;;-144.99;66.79;52236.13;5018317;28;20422;-70
2023/07/06 10:36:16;;;;;;;;;;;;;;;-144.99;66.64;52209.63;5017382;28;19948;-71
2023/07/06 10:38:43;;;;;;;;;;;;;;;-144.99;66.64;52227.97;5015427;28;19938;-74
2023/07/06 10:41:21;;;;;;;;;;;;;;;-144.99;66.55;52256.50;5016400;28;19953;-70
2023/07/06 10:43:48;;;;;;;;;;;;;;;-144.99;66.16;52246.31;5012878;28;19944;-73
2023/07/06 10:46:36;;;;;;;;;;;;;;;-144.99;66.11;52191.28;5017257;28;20067;-72
2023/07/06 10:49:16;;;;;;;;;;;;;;;-144.99;66.37;52232.03;5011307;28;19943;-71
2023/07/06 10:51:48;;;;;;;;;;;;;;;-144.99;66.58;52236.13;5017275;28;19966;-70
2023/07/06 10:54:18;;;;;;;;;;;;;;;-144.99;66.61;52219.81;5016592;28;19944;-71
2023/07/06 10:56:47;;;;;;;;;;;;;;;-144.99;66.41;52146.44;5018346;28;19949;-71
2023/07/06 10:59:15;;;;;;;;;;;;;;;-144.99;65.82;52154.59;5015107;28;19939;-75
2023/07/06 11:01:45;;;;;;;;;;;;;;;-144.99;64.64;52121.97;5019860;28;19965;-71
2023/07/06 11:04:30;;;;;;;;;;;;;;;-144.99;64.18;52174.97;5024147;28;20045;-75
2023/07/06 11:06:58;;;;;;;;;;;;;;;-144.99;64.16;52136.25;5020762;28;19945;-74
2023/07/06 11:09:25;;;;;;;;;;;;;;;-144.99;63.70;52156.63;5037561;28;19947;-74
2023/07/06 11:12:05;;;;;;;;;;;;;;;-144.99;62.76;52174.97;5046650;28;19947;-73
2023/07/06 11:14:39;;;;;;;;;;;;;;;-144.99;62.05;52126.06;5035976;28;19955;-76
2023/07/06 11:17:15;;;;;;;;;;;;;;;-144.99;62.15;52154.59;5046459;28;20309;-75
2023/07/06 11:19:45;;;;;;;;;;;;;;;-144.99;62.11;52181.09;5028746;28;19961;-68
2023/07/06 11:22:17;;;;;;;;;;;;;;;-144.99;62.11;52179.06;5029013;28;19977;-68
2023/07/06 11:24:48;;;;;;;;;;;;;;;-144.99;62.92;52162.75;5029486;28;19994;-64
2023/07/06 11:27:24;;;;;;;;;;;;;;;-144.99;63.47;52207.59;5036371;28;20018;-69
2023/07/06 11:29:53;;;;;;;;;;;;;;;-144.99;62.27;52217.78;5037253;28;19961;-69
2023/07/06 11:32:24;;;;;;;;;;;;;;;-144.99;62.89;52195.34;5032305;28;20060;-68
2023/07/06 11:35:07;;;;;;;;;;;;;;;-144.99;62.78;52207.59;5027949;28;19947;-69
2023/07/06 11:37:40;;;;;;;;;;;;;;;-144.99;62.97;52166.81;5028002;28;20408;-70
2023/07/06 11:40:22;;;;;;;;;;;;;;;-144.99;63.04;52227.97;5042708;28;19957;-71
2023/07/06 11:42:53;;;;;;;;;;;;;;;-144.99;63.35;52227.97;5030323;28;19958;-69
2023/07/06 11:45:24;;;;;;;;;;;;;;;-144.99;63.59;52232.03;5030976;28;19954;-70
2023/07/06 11:47:58;;;;;;;;;;;;;;;-144.99;64.53;52219.81;5029863;28;19946;-70
2023/07/06 11:50:31;;;;;;;;;;;;;;;-144.99;64.73;52223.88;5016993;28;20545;-70
2023/07/06 11:53:09;;;;;;;;;;;;;;;-144.99;65.43;52191.28;4666057;28;10000438;-70
2023/07/06 11:55:50;;;;;;;;;;;;;;;-144.99;65.98;52223.88;5014821;28;19952;-70
2023/07/06 11:58:31;;;;;;;;;;;;;;;-144.99;65.41;52219.81;5012683;28;20326;-70
2023/07/06 12:01:01;;;;;;;;;;;;;;;-144.99;65.09;52211.66;5014009;28;20504;-69
2023/07/06 12:03:29;;;;;;;;;;;;;;;-144.99;65.59;52223.88;5013075;28;19960;-71
2023/07/06 12:05:58;;;;;;;;;;;;;;;-144.99;65.71;52197.41;5013110;28;19952;-70
2023/07/06 12:08:30;;;;;;;;;;;;;;;-144.99;65.68;52195.34;5014012;28;20055;-71
2023/07/06 12:10:59;;;;;;;;;;;;;;;-144.99;65.80;52215.75;5012085;28;19976;-70
2023/07/06 12:13:27;;;;;;;;;;;;;;;-144.99;65.14;52205.53;5012577;28;20029;-70
2023/07/06 12:16:04;;;;;;;;;;;;;;;-144.99;65.30;52174.97;5012754;28;19968;-71
2023/07/06 12:18:31;;;;;;;;;;;;;;;-144.99;65.08;52168.84;5013222;28;19946;-70
2023/07/06 12:20:58;;;;;;;;;;;;;;;-144.99;64.98;52174.97;5014042;28;20762;-71
2023/07/06 12:23:25;;;;;;;;;;;;;;;-144.99;64.50;52174.97;5012937;28;19959;-70
2023/07/06 12:25:53;;;;;;;;;;;;;;;-144.99;64.10;52154.59;5012058;28;19945;-70
2023/07/06 12:28:20;;;;;;;;;;;;;;;-144.99;63.50;52130.13;5017932;28;19948;-69
2023/07/06 12:30:49;;;;;;;;;;;;;;;-144.99;63.06;52121.97;5012175;28;19964;-70